createdAt,value
2022-09-22T00:04:59.852Z,4.80
2022-09-22T00:07:46.802Z,4.72
2022-09-22T00:10:34.810Z,3.90
2022-09-22T00:13:14.844Z,4.13
2022-09-22T00:16:01.858Z,4.00
2022-09-22T00:18:42.873Z,3.80
2022-09-22T00:21:33.806Z,4.20
2022-09-22T00:24:20.814Z,3.63
2022-09-22T00:27:07.814Z,3.65
2022-09-22T00:30:01.804Z,3.90
2022-09-22T00:32:48.811Z,4.05
2022-09-22T00:35:28.884Z,3.60
2022-09-22T00:38:15.812Z,3.30
2022-09-22T00:40:55.861Z,3.50
2022-09-22T00:43:44.807Z,3.60
2022-09-22T00:46:38.879Z,2.83
2022-09-22T00:49:32.851Z,3.40
2022-09-22T00:52:13.817Z,3.47
2022-09-22T00:54:56.811Z,3.25
2022-09-22T00:57:47.805Z,3.30
2022-09-22T01:00:35.957Z,4.18
2022-09-22T01:03:20.840Z,3.28
2022-09-22T01:06:11.991Z,2.78
2022-09-22T01:08:51.835Z,3.08
2022-09-22T01:11:33.880Z,3.67
2022-09-22T01:14:33.831Z,3.60
2022-09-22T01:17:39.914Z,3.38
2022-09-22T01:20:26.836Z,3.95
2022-09-22T01:23:50.868Z,3.50
2022-09-22T01:26:47.792Z,3.53
2022-09-22T01:30:18.822Z,3.35
2022-09-22T01:33:20.458Z,3.05
2022-09-22T01:36:47.816Z,3.47
2022-09-22T01:39:49.870Z,3.20
2022-09-22T01:42:53.843Z,3.63
2022-09-22T01:45:37.440Z,3.40
2022-09-22T01:48:30.814Z,2.90
2022-09-22T01:51:18.454Z,3.50
2022-09-22T01:54:10.830Z,3.75
2022-09-22T01:59:44.005Z,3.72
2022-09-22T02:02:44.035Z,3.15
2022-09-22T02:05:35.869Z,3.15
2022-09-22T02:08:54.836Z,3.05
2022-09-22T02:11:34.856Z,3.03
2022-09-22T02:14:22.831Z,3.08
2022-09-22T02:17:02.888Z,3.47
2022-09-22T02:19:49.849Z,2.90
2022-09-22T02:22:32.169Z,2.70
2022-09-22T02:25:19.807Z,2.80
2022-09-22T02:28:02.049Z,2.55
2022-09-22T02:31:10.833Z,3.17
2022-09-22T02:33:51.980Z,2.70
2022-09-22T02:36:50.841Z,3.10
2022-09-22T02:39:34.786Z,2.85
2022-09-22T02:42:47.799Z,3.15
2022-09-22T02:45:37.881Z,2.80
2022-09-22T02:48:34.834Z,2.53
2022-09-22T02:51:14.929Z,2.28
2022-09-22T02:54:01.826Z,2.70
2022-09-22T02:56:41.903Z,2.67
2022-09-22T02:59:28.829Z,2.50
2022-09-22T03:02:08.864Z,2.33
2022-09-22T03:04:57.946Z,2.95
2022-09-22T03:07:38.204Z,2.65
2022-09-22T03:10:24.815Z,2.20
2022-09-22T03:13:20.231Z,2.58
2022-09-22T03:16:06.879Z,2.70
2022-09-22T03:18:46.879Z,2.30
2022-09-22T03:21:33.836Z,2.30
2022-09-22T03:24:13.880Z,2.40
2022-09-22T03:27:00.817Z,2.03
2022-09-22T03:29:54.820Z,2.47
2022-09-22T03:32:41.846Z,2.13
2022-09-22T03:35:21.872Z,2.45
2022-09-22T03:38:08.852Z,2.50
2022-09-22T03:40:58.752Z,2.30
2022-09-22T03:43:45.823Z,2.35
2022-09-22T03:46:32.851Z,2.08
2022-09-22T03:49:19.843Z,2.05
2022-09-22T03:51:59.885Z,2.22
2022-09-22T03:54:46.828Z,2.35
2022-09-22T03:57:27.185Z,2.15
2022-09-22T04:00:14.829Z,2.40
2022-09-22T04:02:54.875Z,2.22
2022-09-22T04:05:41.837Z,2.10
2022-09-22T04:08:21.865Z,2.55
2022-09-22T04:11:09.842Z,2.13
2022-09-22T04:13:56.827Z,2.28
2022-09-22T04:16:37.429Z,2.25
2022-09-22T04:19:23.840Z,2.10
2022-09-22T04:22:04.741Z,2.13
2022-09-22T04:24:51.842Z,2.28
2022-09-22T04:27:38.860Z,2.50
2022-09-22T04:30:32.900Z,2.50
2022-09-22T04:33:13.466Z,2.30
2022-09-22T04:36:01.873Z,2.47
2022-09-22T04:38:48.882Z,2.83
2022-09-22T04:41:28.827Z,2.67
2022-09-22T04:44:09.370Z,2.45
2022-09-22T04:46:56.836Z,2.45
2022-09-22T04:49:43.885Z,2.60
2022-09-22T04:52:23.876Z,2.50
2022-09-22T04:55:11.808Z,2.67
2022-09-22T04:58:09.916Z,2.42
2022-09-22T05:00:56.905Z,2.83
2022-09-22T05:03:38.923Z,2.05
2022-09-22T05:06:25.812Z,2.67
2022-09-22T05:09:12.834Z,2.50
2022-09-22T05:11:55.029Z,2.80
2022-09-22T05:14:41.987Z,2.63
2022-09-22T05:17:28.863Z,2.50
2022-09-22T05:20:17.812Z,3.17
2022-09-22T05:23:06.437Z,2.20
2022-09-22T05:25:45.828Z,2.60
2022-09-22T05:28:33.031Z,2.78
2022-09-22T05:31:26.859Z,2.50
2022-09-22T05:34:13.881Z,2.80
2022-09-22T05:36:53.827Z,2.60
2022-09-22T05:39:40.830Z,2.80
2022-09-22T05:42:23.685Z,2.72
2022-09-22T05:45:09.823Z,2.30
2022-09-22T05:47:49.954Z,3.25
2022-09-22T05:50:36.816Z,3.28
2022-09-22T05:53:24.837Z,3.00
2022-09-22T05:56:11.848Z,4.65
2022-09-22T05:58:54.136Z,3.10
2022-09-22T06:01:40.834Z,3.38
2022-09-22T06:04:20.916Z,3.03
2022-09-22T06:07:07.843Z,2.67
2022-09-22T06:09:47.919Z,3.28
2022-09-22T06:12:34.835Z,3.00
2022-09-22T06:15:37.850Z,3.10
2022-09-22T06:18:23.365Z,2.70
2022-09-22T06:21:11.853Z,2.75
2022-09-22T06:23:58.897Z,2.50
2022-09-22T06:26:38.862Z,3.22
2022-09-22T06:29:25.858Z,2.55
2022-09-22T06:32:15.891Z,2.60
2022-09-22T06:34:55.853Z,2.60
2022-09-22T06:37:38.442Z,2.85
2022-09-22T06:40:24.900Z,2.63
2022-09-22T06:43:10.530Z,2.47
2022-09-22T06:45:57.930Z,2.60
2022-09-22T06:48:38.486Z,2.63
2022-09-22T06:51:24.851Z,2.70
2022-09-22T06:54:13.337Z,3.03
2022-09-22T06:56:52.821Z,2.70
2022-09-22T06:59:37.804Z,2.80
2022-09-22T07:02:24.875Z,2.90
2022-09-22T07:05:12.388Z,2.80
2022-09-22T07:07:51.850Z,3.03
2022-09-22T07:10:39.932Z,2.78
2022-09-22T07:13:19.847Z,3.15
2022-09-22T07:16:02.216Z,3.25
2022-09-22T07:18:51.863Z,2.80
2022-09-22T07:21:36.326Z,3.05
2022-09-22T07:24:22.841Z,2.97
2022-09-22T07:27:10.691Z,3.13
2022-09-22T07:29:50.836Z,2.80
2022-09-22T07:32:38.869Z,2.83
2022-09-22T07:35:18.901Z,2.65
2022-09-22T07:38:08.880Z,2.97
2022-09-22T07:41:00.710Z,2.60
2022-09-22T07:43:47.838Z,3.00
2022-09-22T07:46:34.917Z,3.05
2022-09-22T07:49:23.839Z,3.00
2022-09-22T07:52:10.864Z,3.13
2022-09-22T07:54:57.899Z,2.97
2022-09-22T07:57:37.864Z,3.35
2022-09-22T08:00:24.990Z,2.90
2022-09-22T08:03:05.842Z,3.00
2022-09-22T08:05:53.489Z,3.30
2022-09-22T08:08:33.858Z,3.17
2022-09-22T08:11:23.855Z,3.20
2022-09-22T08:14:09.917Z,3.33
2022-09-22T08:16:59.842Z,3.47
2022-09-22T08:19:40.148Z,3.22
2022-09-22T08:22:26.857Z,3.65
2022-09-22T08:25:07.409Z,3.08
2022-09-22T08:27:53.861Z,3.47
2022-09-22T08:30:41.890Z,3.38
2022-09-22T08:33:28.942Z,3.83
2022-09-22T08:36:09.853Z,3.45
2022-09-22T08:38:58.002Z,3.10
2022-09-22T08:41:44.859Z,3.35
2022-09-22T08:45:03.896Z,3.70
2022-09-22T08:48:28.384Z,3.67
2022-09-22T08:51:47.890Z,3.63
2022-09-22T08:54:34.465Z,3.53
2022-09-22T08:57:39.895Z,3.67
2022-09-22T09:00:22.950Z,3.15
2022-09-22T09:03:46.897Z,3.30
2022-09-22T09:06:48.916Z,3.75
2022-09-22T09:09:44.881Z,3.25
2022-09-22T09:12:44.951Z,3.28
2022-09-22T09:15:53.931Z,3.15
2022-09-22T09:18:46.944Z,3.20
2022-09-22T09:21:37.878Z,3.00
2022-09-22T09:27:40.874Z,3.42
2022-09-22T09:30:35.883Z,3.13
2022-09-22T09:34:00.882Z,3.08
2022-09-22T09:36:45.948Z,3.00
2022-09-22T09:39:40.864Z,3.22
2022-09-22T09:42:42.896Z,3.15
2022-09-22T09:45:35.928Z,3.17
2022-09-22T09:48:26.893Z,3.40
2022-09-22T09:51:11.965Z,2.88
2022-09-22T09:54:00.919Z,2.80
2022-09-22T09:57:12.893Z,2.85
2022-09-22T10:00:39.904Z,2.70
2022-09-22T10:03:29.998Z,2.63
2022-09-22T10:06:15.883Z,2.80
2022-09-22T10:09:03.889Z,2.63
2022-09-22T10:11:50.877Z,2.42
2022-09-22T10:14:41.957Z,2.40
2022-09-22T10:17:32.915Z,2.70
2022-09-22T10:20:48.981Z,2.35
2022-09-22T10:23:29.881Z,2.47
2022-09-22T10:26:27.444Z,2.08
2022-09-22T10:29:22.905Z,2.20
2022-09-22T10:32:27.873Z,2.30
2022-09-22T10:35:33.926Z,1.90
2022-09-22T10:38:31.797Z,2.30
2022-09-22T10:41:33.913Z,2.33
2022-09-22T10:44:45.317Z,1.90
2022-09-22T10:47:57.925Z,1.83
2022-09-22T10:51:03.043Z,2.13
2022-09-22T10:54:00.924Z,2.15
2022-09-22T10:56:50.909Z,1.80
2022-09-22T11:00:21.909Z,2.00
2022-09-22T11:04:00.000Z,2.20
2022-09-22T11:07:17.909Z,2.00
2022-09-22T11:10:27.935Z,1.90
2022-09-22T11:13:31.282Z,1.90
2022-09-22T11:16:40.916Z,1.73
2022-09-22T11:19:50.922Z,2.00
2022-09-22T11:22:54.906Z,1.70
2022-09-22T11:25:57.140Z,1.65
2022-09-22T11:29:06.990Z,1.95
2022-09-22T11:32:01.483Z,1.50
2022-09-22T11:35:06.917Z,1.55
2022-09-22T11:38:05.960Z,1.48
2022-09-22T11:41:18.923Z,1.50
2022-09-22T11:45:08.896Z,1.95
2022-09-22T11:47:58.998Z,1.67
2022-09-22T11:50:47.906Z,1.52
2022-09-22T11:54:05.143Z,1.55
2022-09-22T11:56:57.909Z,1.65
2022-09-22T12:00:00.033Z,1.30
2022-09-22T12:03:02.539Z,1.70
2022-09-22T12:06:00.975Z,1.65
2022-09-22T12:09:03.935Z,1.80
2022-09-22T12:11:51.938Z,1.65
2022-09-22T12:14:39.913Z,1.40
2022-09-22T12:17:35.918Z,1.80
2022-09-22T12:20:56.977Z,1.30
2022-09-22T12:23:50.573Z,1.70
2022-09-22T12:26:39.998Z,1.70
2022-09-22T12:29:26.917Z,1.80
2022-09-22T12:32:29.459Z,1.65
2022-09-22T12:35:09.920Z,1.92
2022-09-22T12:37:54.238Z,1.70
2022-09-22T12:40:48.929Z,1.50
2022-09-22T12:43:37.341Z,1.85
2022-09-22T12:46:31.932Z,1.60
2022-09-22T12:49:24.974Z,1.50
2022-09-22T12:52:05.933Z,1.55
2022-09-22T12:54:46.919Z,1.60
2022-09-22T12:57:39.946Z,1.73
2022-09-22T13:00:33.356Z,1.50
2022-09-22T13:03:31.965Z,1.70
2022-09-22T13:06:27.945Z,1.65
2022-09-22T13:09:14.920Z,1.83
2022-09-22T13:12:18.509Z,1.85
2022-09-22T13:15:12.930Z,1.98
2022-09-22T13:17:59.958Z,1.95
2022-09-22T13:20:41.988Z,1.83
2022-09-22T13:23:28.963Z,1.70
2022-09-22T13:26:26.922Z,1.75
2022-09-22T13:29:31.942Z,2.13
2022-09-22T13:32:34.954Z,2.00
2022-09-22T13:35:37.306Z,1.80
2022-09-22T13:38:27.098Z,1.70
2022-09-22T13:41:19.929Z,1.73
2022-09-22T13:44:15.975Z,1.80
2022-09-22T13:47:05.932Z,1.80
2022-09-22T13:49:59.955Z,1.90
2022-09-22T13:52:41.061Z,2.10
2022-09-22T13:55:53.963Z,1.75
2022-09-22T13:58:44.995Z,1.85
2022-09-22T14:01:28.008Z,2.03
2022-09-22T14:04:30.965Z,2.03
2022-09-22T14:07:26.946Z,1.70
2022-09-22T14:10:15.971Z,2.00
2022-09-22T14:12:56.061Z,2.08
2022-09-22T14:15:49.977Z,2.17
2022-09-22T14:18:35.002Z,2.00
2022-09-22T14:21:21.931Z,1.90
2022-09-22T14:24:02.040Z,1.92
2022-09-22T14:27:03.535Z,1.77
2022-09-22T14:29:46.008Z,1.80
2022-09-22T14:32:38.992Z,1.98
2022-09-22T14:35:42.965Z,2.00
2022-09-22T14:38:29.944Z,2.10
2022-09-22T14:41:10.002Z,2.05
2022-09-22T14:43:56.989Z,2.15
2022-09-22T14:46:53.930Z,2.10
2022-09-22T14:49:41.780Z,1.92
2022-09-22T14:52:40.928Z,1.92
2022-09-22T14:55:38.950Z,2.00
2022-09-22T14:58:40.784Z,1.95
2022-09-22T15:01:49.816Z,2.00
2022-09-22T15:04:31.941Z,2.47
2022-09-22T15:07:30.296Z,2.30
2022-09-22T15:10:20.752Z,1.80
2022-09-22T15:13:51.799Z,2.15
2022-09-22T15:17:24.767Z,2.03
2022-09-22T15:20:12.183Z,1.90
2022-09-22T15:22:52.762Z,2.00
2022-09-22T15:25:39.753Z,1.90
2022-09-22T15:28:23.737Z,1.85
2022-09-22T15:31:11.817Z,1.88
2022-09-22T15:33:52.042Z,2.30
2022-09-22T15:36:42.769Z,2.10
2022-09-22T15:39:35.749Z,2.15
2022-09-22T15:42:23.206Z,2.10
2022-09-22T15:45:02.966Z,1.70
2022-09-22T15:47:52.678Z,2.00
2022-09-22T15:50:35.961Z,2.00
2022-09-22T15:53:23.136Z,1.80
2022-09-22T15:56:04.959Z,1.85
2022-09-22T15:58:51.963Z,2.15
2022-09-22T16:01:32.100Z,1.90
2022-09-22T16:04:18.975Z,1.80
2022-09-22T16:07:09.979Z,2.20
2022-09-22T16:09:50.417Z,2.38
2022-09-22T16:12:36.980Z,1.80
2022-09-22T16:15:24.037Z,2.00
2022-09-22T16:18:03.957Z,1.73
2022-09-22T16:20:45.639Z,1.80
2022-09-22T16:23:31.957Z,1.83
2022-09-22T16:26:12.493Z,1.80
2022-09-22T16:28:58.990Z,1.88
2022-09-22T16:31:53.041Z,1.77
2022-09-22T16:34:42.001Z,1.90
2022-09-22T16:37:22.044Z,2.20
2022-09-22T16:40:09.026Z,1.63
2022-09-22T16:42:55.979Z,2.10
2022-09-22T16:46:01.568Z,1.73
2022-09-22T16:48:43.982Z,1.63
2022-09-22T16:51:31.108Z,1.92
2022-09-22T16:54:14.014Z,1.80
2022-09-22T16:56:54.460Z,2.30
2022-09-22T16:59:40.982Z,2.70
2022-09-22T17:02:28.073Z,1.98
2022-09-22T17:05:07.996Z,1.80
2022-09-22T17:07:55.102Z,1.90
2022-09-22T17:10:36.025Z,1.90
2022-09-22T17:13:27.981Z,2.35
2022-09-22T17:16:27.996Z,2.10
2022-09-22T17:19:18.384Z,1.90
2022-09-22T17:22:06.962Z,1.90
2022-09-22T17:24:47.467Z,1.77
2022-09-22T17:27:33.990Z,2.22
2022-09-22T17:30:16.224Z,2.08
2022-09-22T17:33:02.976Z,2.03
2022-09-22T17:35:50.053Z,2.22
2022-09-22T17:38:30.999Z,2.58
2022-09-22T17:41:19.646Z,2.70
2022-09-22T17:44:04.001Z,2.72
2022-09-22T17:47:09.791Z,3.03
2022-09-22T17:50:07.994Z,3.13
2022-09-22T17:55:52.969Z,4.20
2022-09-22T17:58:39.976Z,3.80
2022-09-22T18:01:26.988Z,4.30
2022-09-22T18:04:13.981Z,4.22
2022-09-22T18:06:54.021Z,4.78
2022-09-22T18:09:41.994Z,4.13
2022-09-22T18:12:32.322Z,3.92
2022-09-22T18:15:19.964Z,4.07
2022-09-22T18:18:00.101Z,4.40
2022-09-22T18:20:46.982Z,4.22
2022-09-22T18:23:28.510Z,4.90
2022-09-22T18:26:14.966Z,4.15
2022-09-22T18:29:02.014Z,4.63
2022-09-22T18:31:56.958Z,4.80
2022-09-22T18:34:43.959Z,4.63
2022-09-22T18:37:24.584Z,4.90
2022-09-22T18:40:12.019Z,5.20
2022-09-22T18:42:52.266Z,5.60
2022-09-22T18:45:44.164Z,5.30
2022-09-22T18:48:31.054Z,5.75
2022-09-22T18:51:17.981Z,6.40
2022-09-22T18:54:00.575Z,5.20
2022-09-22T18:56:48.976Z,5.72
2022-09-22T18:59:31.037Z,5.43
2022-09-22T19:02:19.042Z,5.93
2022-09-22T19:04:59.139Z,6.25
2022-09-22T19:07:46.963Z,5.70
2022-09-22T19:10:27.503Z,6.65
2022-09-22T19:13:14.030Z,5.95
2022-09-22T19:16:01.035Z,6.00
2022-09-22T19:18:49.788Z,6.50
2022-09-22T19:21:29.995Z,5.50
2022-09-22T19:24:17.038Z,5.50
2022-09-22T19:27:01.966Z,6.40
2022-09-22T19:29:42.593Z,5.63
2022-09-22T19:32:28.966Z,5.72
2022-09-22T19:35:17.380Z,5.45
2022-09-22T19:38:04.982Z,5.82
2022-09-22T19:40:52.989Z,6.03
2022-09-22T19:43:39.981Z,5.95
2022-09-22T19:46:20.859Z,5.97
2022-09-22T19:49:07.974Z,6.82
2022-09-22T19:51:54.965Z,6.72
2022-09-22T19:54:35.049Z,6.80
2022-09-22T19:57:21.993Z,6.57
2022-09-22T20:00:02.016Z,6.40
2022-09-22T20:02:52.028Z,6.85
2022-09-22T20:05:47.976Z,7.60
2022-09-22T20:08:34.990Z,8.82
2022-09-22T20:11:26.718Z,7.97
2022-09-22T20:14:34.001Z,8.75
2022-09-22T20:17:15.168Z,8.23
2022-09-22T20:20:02.057Z,6.90
2022-09-22T20:22:48.983Z,6.47
2022-09-22T20:25:38.971Z,6.13
2022-09-22T20:28:19.063Z,7.57
2022-09-22T20:31:13.221Z,7.63
2022-09-22T20:34:00.141Z,9.02
2022-09-22T20:36:40.982Z,8.98
2022-09-22T20:39:28.001Z,7.80
2022-09-22T20:42:14.993Z,7.85
2022-09-22T20:45:02.072Z,8.13
2022-09-22T20:47:42.984Z,9.43
2022-09-22T20:50:29.991Z,8.00
2022-09-22T20:53:10.075Z,8.80
2022-09-22T20:56:12.980Z,8.23
2022-09-22T20:59:00.001Z,10.95
2022-09-22T21:01:47.376Z,9.48
2022-09-22T21:04:27.989Z,9.70
2022-09-22T21:07:15.056Z,11.07
2022-09-22T21:10:13.979Z,10.60
2022-09-22T21:12:56.019Z,10.77
2022-09-22T21:15:43.035Z,10.52
2022-09-22T21:18:33.933Z,10.52
2022-09-22T21:21:14.987Z,9.38
2022-09-22T21:24:02.986Z,9.45
2022-09-22T21:26:43.127Z,9.82
2022-09-22T21:29:29.982Z,10.15
2022-09-22T21:32:10.065Z,9.13
2022-09-22T21:34:56.992Z,9.73
2022-09-22T21:37:37.166Z,10.30
2022-09-22T21:40:25.053Z,10.52
2022-09-22T21:43:05.091Z,10.00
2022-09-22T21:45:52.045Z,10.80
2022-09-22T21:48:40.006Z,11.95
2022-09-22T21:51:35.006Z,9.73
2022-09-22T21:54:24.986Z,9.40
2022-09-22T21:57:05.042Z,9.57
2022-09-22T21:59:54.936Z,9.63
2022-09-22T22:03:03.874Z,9.52
2022-09-22T22:05:44.010Z,9.63
2022-09-22T22:08:24.040Z,9.40
2022-09-22T22:11:15.030Z,9.70
2022-09-22T22:14:03.054Z,9.57
2022-09-22T22:16:52.003Z,9.68
2022-09-22T22:19:32.050Z,10.35
2022-09-22T22:22:18.985Z,10.50
2022-09-22T22:24:59.043Z,10.10
2022-09-22T22:27:46.020Z,10.32
2022-09-22T22:30:27.077Z,11.02
2022-09-22T22:33:14.990Z,9.82
2022-09-22T22:35:57.106Z,9.57
2022-09-22T22:38:44.993Z,9.75
2022-09-22T22:41:31.985Z,9.25
2022-09-22T22:44:19.081Z,9.07
2022-09-22T22:46:58.987Z,9.63
2022-09-22T22:49:46.020Z,10.15
2022-09-22T22:52:26.051Z,10.02
2022-09-22T22:55:15.987Z,10.55
2022-09-22T22:57:56.061Z,9.10
2022-09-22T23:00:45.982Z,9.70
2022-09-22T23:03:26.779Z,10.13
2022-09-22T23:06:17.111Z,9.68
2022-09-22T23:08:58.057Z,8.93
2022-09-22T23:11:45.998Z,9.50
2022-09-22T23:14:26.041Z,9.32
2022-09-22T23:17:13.012Z,8.73
2022-09-22T23:19:53.859Z,8.93
2022-09-22T23:22:39.998Z,9.05
2022-09-22T23:25:20.303Z,9.45
2022-09-22T23:28:07.991Z,9.38
2022-09-22T23:30:48.103Z,8.73
2022-09-22T23:33:35.984Z,8.82
2022-09-22T23:36:24.062Z,8.95
2022-09-22T23:39:11.002Z,9.27
2022-09-22T23:44:38.989Z,8.70
2022-09-22T23:50:07.013Z,8.75
2022-09-22T23:52:47.044Z,8.98
2022-09-22T23:55:33.997Z,8.63
